createdAt,value
2022-08-05T00:02:57.237Z,22.30
2022-08-05T00:06:22.344Z,22.30
2022-08-05T00:09:44.124Z,22.34
2022-08-05T00:12:56.755Z,22.24
2022-08-05T00:16:36.226Z,22.25
2022-08-05T00:20:02.377Z,22.18
2022-08-05T00:23:44.718Z,22.18
2022-08-05T00:26:46.691Z,22.06
2022-08-05T00:29:57.128Z,22.10
2022-08-05T00:33:06.974Z,22.05
2022-08-05T00:37:12.484Z,21.97
2022-08-05T00:39:58.641Z,21.92
2022-08-05T00:43:07.566Z,21.81
2022-08-05T00:46:12.761Z,21.82
2022-08-05T00:49:20.137Z,21.82
2022-08-05T00:52:28.423Z,21.79
2022-08-05T00:55:42.413Z,21.78
2022-08-05T00:58:47.872Z,21.81
2022-08-05T01:01:51.179Z,21.78
2022-08-05T01:04:55.538Z,21.73
2022-08-05T01:08:40.112Z,21.78
2022-08-05T01:12:18.120Z,21.59
2022-08-05T01:15:57.146Z,21.49
2022-08-05T01:19:57.030Z,21.51
2022-08-05T01:23:34.969Z,21.45
2022-08-05T01:26:54.892Z,21.51
2022-08-05T01:30:03.835Z,21.48
2022-08-05T01:33:10.794Z,21.36
2022-08-05T01:36:21.196Z,21.29
2022-08-05T01:39:45.768Z,21.23
2022-08-05T01:42:52.789Z,21.18
2022-08-05T01:45:57.879Z,21.12
2022-08-05T01:49:24.974Z,21.03
2022-08-05T01:52:50.498Z,21.07
2022-08-05T01:55:59.675Z,20.97
2022-08-05T01:59:13.881Z,20.96
2022-08-05T02:02:46.466Z,20.90
2022-08-05T02:06:37.177Z,20.89
2022-08-05T02:09:51.532Z,20.91
2022-08-05T02:13:16.628Z,20.89
2022-08-05T02:16:28.187Z,20.86
2022-08-05T02:19:47.434Z,20.88
2022-08-05T02:22:58.698Z,20.88
2022-08-05T02:26:08.091Z,20.81
2022-08-05T02:29:21.572Z,20.76
2022-08-05T02:32:40.834Z,20.72
2022-08-05T02:36:15.534Z,20.68
2022-08-05T02:39:41.311Z,20.60
2022-08-05T02:42:52.660Z,20.53
2022-08-05T02:45:58.807Z,20.48
2022-08-05T02:49:06.103Z,20.40
2022-08-05T02:52:29.770Z,20.29
2022-08-05T02:56:01.854Z,20.22
2022-08-05T02:59:06.439Z,20.24
2022-08-05T03:02:15.097Z,20.25
2022-08-05T03:06:54.921Z,20.16
2022-08-05T03:09:04.772Z,20.13
2022-08-05T03:12:10.797Z,20.11
2022-08-05T03:15:15.402Z,20.13
2022-08-05T03:18:29.774Z,20.09
2022-08-05T03:41:38.601Z,19.97
2022-08-05T03:45:21.815Z,19.99
2022-08-05T03:48:45.420Z,19.96
2022-08-05T03:52:49.193Z,19.94
2022-08-05T03:56:36.786Z,19.95
2022-08-05T03:59:54.719Z,19.94
2022-08-05T04:03:01.613Z,19.88
2022-08-05T04:06:26.121Z,19.88
2022-08-05T04:09:30.495Z,19.91
2022-08-05T04:13:00.222Z,19.84
2022-08-05T04:16:09.643Z,19.94
2022-08-05T04:19:20.836Z,20.02
2022-08-05T04:22:26.560Z,20.09
2022-08-05T04:25:57.425Z,20.07
2022-08-05T04:29:07.072Z,20.18
2022-08-05T04:32:11.354Z,20.21
2022-08-05T04:35:17.582Z,20.27
2022-08-05T04:38:43.854Z,20.36
2022-08-05T04:41:53.985Z,20.46
2022-08-05T04:44:59.848Z,20.53
2022-08-05T04:48:27.355Z,20.57
2022-08-05T04:51:51.306Z,20.71
2022-08-05T04:55:14.346Z,20.84
2022-08-05T04:58:21.632Z,20.94
2022-08-05T05:02:41.764Z,21.02
2022-08-05T06:44:30.527Z,27.70
2022-08-05T06:48:37.044Z,28.12
2022-08-05T06:51:33.032Z,28.22
2022-08-05T06:54:36.403Z,28.35
2022-08-05T06:57:57.166Z,28.64
2022-08-05T07:01:07.807Z,28.78
2022-08-05T07:04:13.958Z,28.95
2022-08-05T07:07:23.894Z,29.16
2022-08-05T07:10:52.271Z,29.34
2022-08-05T07:14:29.796Z,29.53
2022-08-05T07:18:00.303Z,29.66
2022-08-05T07:20:57.985Z,29.86
2022-08-05T07:28:17.115Z,30.27
2022-08-05T07:31:53.963Z,30.15
2022-08-05T07:43:20.328Z,30.48
2022-08-05T08:06:44.529Z,31.61
2022-08-05T08:10:20.813Z,31.72
2022-08-05T08:13:30.735Z,31.77
2022-08-05T08:16:51.175Z,32.04
2022-08-05T08:20:22.604Z,32.19
2022-08-05T08:24:01.457Z,32.38
2022-08-05T08:27:00.754Z,32.40
2022-08-05T08:30:27.631Z,32.21
2022-08-05T08:33:38.597Z,32.17
2022-08-05T08:36:48.834Z,32.51
2022-08-05T08:40:03.429Z,32.55
2022-08-05T08:45:16.101Z,32.84
2022-08-05T08:46:53.332Z,32.68
2022-08-05T08:50:22.347Z,32.94
2022-08-05T08:53:24.979Z,33.03
2022-08-05T08:56:33.482Z,33.20
2022-08-05T08:59:38.374Z,33.35
2022-08-05T09:02:48.281Z,33.34
2022-08-05T09:09:53.606Z,33.78
2022-08-05T09:13:04.971Z,33.84
2022-08-05T09:16:23.091Z,34.07
2022-08-05T09:19:36.418Z,34.10
2022-08-05T09:23:21.747Z,33.68
2022-08-05T09:26:26.634Z,34.22
2022-08-05T09:29:47.731Z,34.15
2022-08-05T09:32:52.999Z,34.24
2022-08-05T09:36:11.588Z,34.37
2022-08-05T09:39:22.242Z,34.61
2022-08-05T09:42:27.998Z,34.38
2022-08-05T09:46:07.801Z,34.46
2022-08-05T09:53:22.987Z,34.55
2022-08-05T09:56:52.636Z,34.74
2022-08-05T09:59:58.946Z,35.01
2022-08-05T10:03:15.338Z,34.83
2022-08-05T10:18:55.305Z,35.50
2022-08-05T10:22:30.370Z,35.47
2022-08-05T10:26:07.080Z,35.41
2022-08-05T10:29:10.702Z,35.63
2022-08-05T10:32:53.603Z,35.30
2022-08-05T10:35:40.391Z,35.03
2022-08-05T10:38:53.273Z,35.38
2022-08-05T10:42:11.324Z,35.38
2022-08-05T10:45:23.252Z,35.40
2022-08-05T10:49:16.558Z,35.67
2022-08-05T10:52:54.057Z,35.50
2022-08-05T10:56:25.313Z,35.49
2022-08-05T11:00:04.363Z,35.61
2022-08-05T11:03:25.082Z,35.92
2022-08-05T11:06:30.907Z,35.67
2022-08-05T11:09:46.198Z,35.83
2022-08-05T11:12:54.449Z,36.01
2022-08-05T11:16:22.447Z,36.15
2022-08-05T11:20:11.150Z,36.16
2022-08-05T11:23:33.600Z,36.11
2022-08-05T11:27:50.768Z,35.93
2022-08-05T11:30:58.868Z,36.23
2022-08-05T11:34:08.118Z,36.23
2022-08-05T11:38:29.936Z,36.42
2022-08-05T11:41:34.137Z,36.53
2022-08-05T11:44:53.103Z,36.51
2022-08-05T11:47:58.874Z,36.48
2022-08-05T11:51:02.721Z,36.36
2022-08-05T11:54:06.913Z,36.54
2022-08-05T11:57:24.359Z,36.56
2022-08-05T12:00:31.917Z,36.30
2022-08-05T12:03:56.014Z,36.04
2022-08-05T12:07:01.209Z,36.63
2022-08-05T12:10:19.342Z,36.82
2022-08-05T12:13:47.904Z,36.78
2022-08-05T12:16:49.705Z,36.87
2022-08-05T12:20:17.142Z,36.55
2022-08-05T12:23:24.976Z,36.35
2022-08-05T12:26:36.439Z,36.27
2022-08-05T12:29:39.842Z,36.49
2022-08-05T12:32:51.296Z,36.59
2022-08-05T12:35:57.717Z,36.85
2022-08-05T12:39:01.746Z,36.89
2022-08-05T12:42:16.609Z,36.62
2022-08-05T12:45:20.469Z,37.07
2022-08-05T12:48:32.527Z,37.00
2022-08-05T12:52:14.424Z,37.15
2022-08-05T12:55:25.463Z,37.31
2022-08-05T12:58:38.218Z,36.97
2022-08-05T13:02:12.116Z,36.81
2022-08-05T13:05:15.357Z,36.83
2022-08-05T13:08:18.974Z,36.69
2022-08-05T13:12:02.168Z,36.68
2022-08-05T13:15:06.677Z,37.04
2022-08-05T13:18:10.660Z,36.83
2022-08-05T13:21:14.408Z,36.97
2022-08-05T13:24:27.606Z,37.15
2022-08-05T13:27:44.015Z,37.27
2022-08-05T13:30:54.558Z,37.24
2022-08-05T13:34:21.465Z,37.37
2022-08-05T13:37:34.225Z,36.90
2022-08-05T13:41:02.927Z,37.14
2022-08-05T13:44:07.982Z,36.97
2022-08-05T13:47:35.143Z,36.72
2022-08-05T13:50:40.035Z,36.82
2022-08-05T13:53:47.756Z,36.84
2022-08-05T13:56:51.998Z,36.78
2022-08-05T13:59:57.177Z,36.67
2022-08-05T14:03:02.860Z,36.55
2022-08-05T14:06:25.913Z,36.19
2022-08-05T14:09:29.760Z,36.29
2022-08-05T14:12:33.279Z,36.41
2022-08-05T14:16:08.020Z,36.44
2022-08-05T14:19:04.525Z,36.60
2022-08-05T14:22:11.934Z,36.30
2022-08-05T14:25:21.475Z,36.22
2022-08-05T14:28:27.151Z,36.30
2022-08-05T14:31:54.314Z,36.37
2022-08-05T14:34:56.685Z,36.51
2022-08-05T14:38:01.075Z,36.50
2022-08-05T14:45:07.096Z,36.19
2022-08-05T14:48:32.474Z,36.20
2022-08-05T14:51:42.655Z,36.36
2022-08-05T14:54:53.030Z,36.19
2022-08-05T14:57:56.716Z,36.26
2022-08-05T15:01:00.559Z,36.35
2022-08-05T15:04:07.167Z,36.23
2022-08-05T15:07:11.106Z,36.36
2022-08-05T15:10:35.482Z,36.31
2022-08-05T15:13:45.849Z,36.27
2022-08-05T15:16:49.629Z,36.27
2022-08-05T15:19:55.135Z,36.11
2022-08-05T15:23:10.494Z,36.16
2022-08-05T15:26:13.772Z,36.20
2022-08-05T15:29:18.105Z,35.99
2022-08-05T15:32:22.121Z,36.15
2022-08-05T15:35:35.942Z,36.10
2022-08-05T15:38:40.910Z,36.13
2022-08-05T15:41:58.549Z,36.11
2022-08-05T15:45:02.968Z,36.13
2022-08-05T15:48:10.106Z,36.22
2022-08-05T15:51:22.611Z,36.17
2022-08-05T15:54:46.339Z,36.25
2022-08-05T15:57:56.006Z,36.11
2022-08-05T16:05:09.733Z,35.86
2022-08-05T16:12:17.430Z,35.87
2022-08-05T16:15:23.920Z,35.89
2022-08-05T16:18:28.016Z,35.79
2022-08-05T16:22:01.178Z,35.84
2022-08-05T16:24:56.861Z,35.72
2022-08-05T16:28:10.530Z,35.64
2022-08-05T16:35:15.994Z,35.54
2022-08-05T16:38:28.281Z,35.39
2022-08-05T16:42:13.615Z,35.28
2022-08-05T16:44:57.094Z,35.28
2022-08-05T16:48:04.316Z,35.12
2022-08-05T16:51:09.769Z,35.04
2022-08-05T16:54:22.509Z,35.05
2022-08-05T16:57:53.715Z,34.92
2022-08-05T17:00:53.915Z,34.77
2022-08-05T17:03:58.339Z,34.63
2022-08-05T17:07:11.216Z,34.57
2022-08-05T17:10:15.576Z,34.55
2022-08-05T17:13:21.268Z,34.46
2022-08-05T17:16:42.363Z,34.31
2022-08-05T17:19:47.363Z,34.27
2022-08-05T17:22:59.270Z,34.18
2022-08-05T17:30:19.278Z,33.86
2022-08-05T17:34:20.755Z,33.66
2022-08-05T17:38:30.936Z,33.54
2022-08-05T17:51:26.487Z,33.31
2022-08-05T18:11:09.668Z,32.57
2022-08-05T18:14:26.765Z,32.39
2022-08-05T18:18:01.211Z,32.22
2022-08-05T18:20:53.339Z,32.10
2022-08-05T18:24:16.496Z,31.97
2022-08-05T18:27:20.192Z,31.89
2022-08-05T18:30:23.899Z,31.78
2022-08-05T18:33:46.658Z,31.67
2022-08-05T18:36:50.344Z,31.54
2022-08-05T18:41:52.720Z,31.45
2022-08-05T18:43:42.964Z,31.30
2022-08-05T18:46:52.147Z,31.14
2022-08-05T18:50:15.669Z,31.07
2022-08-05T18:53:22.897Z,30.97
2022-08-05T18:56:28.558Z,30.83
2022-08-05T18:59:43.994Z,30.71
2022-08-05T19:03:15.919Z,30.57
2022-08-05T19:06:21.999Z,30.55
2022-08-05T19:09:28.444Z,30.55
2022-08-05T19:12:43.416Z,30.41
2022-08-05T19:15:59.761Z,30.37
2022-08-05T19:19:08.079Z,30.35
2022-08-05T19:22:33.380Z,30.32
2022-08-05T19:26:02.222Z,30.15
2022-08-05T19:29:07.037Z,30.05
2022-08-05T19:32:46.835Z,29.95
2022-08-05T19:36:21.912Z,29.86
2022-08-05T19:39:54.115Z,29.83
2022-08-05T19:43:05.319Z,29.71
2022-08-05T19:50:21.699Z,29.28
2022-08-05T19:54:04.023Z,29.09
2022-08-05T19:57:11.037Z,28.98
2022-08-05T20:00:40.012Z,28.85
2022-08-05T20:04:06.330Z,28.76
2022-08-05T20:07:47.862Z,28.72
2022-08-05T20:11:13.464Z,28.56
2022-08-05T20:14:40.940Z,28.50
2022-08-05T20:18:32.895Z,28.45
2022-08-05T20:21:33.775Z,28.31
2022-08-05T20:24:41.608Z,28.25
2022-08-05T20:27:47.151Z,28.20
2022-08-05T20:30:57.236Z,28.17
2022-08-05T20:34:00.165Z,28.13
2022-08-05T20:37:04.039Z,28.06
2022-08-05T20:40:12.908Z,28.05
2022-08-05T20:44:03.480Z,28.04
2022-08-05T20:47:19.094Z,27.98
2022-08-05T20:50:37.764Z,27.90
2022-08-05T20:53:57.006Z,27.80
2022-08-05T20:57:01.148Z,27.64
2022-08-05T21:00:21.038Z,27.51
2022-08-05T21:03:34.906Z,27.39
2022-08-05T21:06:45.676Z,27.35
2022-08-05T21:09:53.541Z,27.27
2022-08-05T21:13:48.055Z,27.20
2022-08-05T21:16:57.465Z,26.97
2022-08-05T21:20:09.911Z,26.94
2022-08-05T21:23:14.185Z,26.95
2022-08-05T21:26:17.250Z,26.90
2022-08-05T21:29:26.288Z,26.88
2022-08-05T21:32:33.683Z,26.78
2022-08-05T22:35:58.956Z,25.33
2022-08-05T22:39:22.971Z,25.29
2022-08-05T22:42:27.580Z,25.23
2022-08-05T22:45:32.889Z,25.11
2022-08-05T22:48:38.331Z,25.01
2022-08-05T22:52:04.843Z,24.98
2022-08-05T22:55:19.197Z,24.95
2022-08-05T22:58:28.353Z,24.81
2022-08-05T23:02:03.836Z,24.55
2022-08-05T23:05:02.059Z,24.59
2022-08-05T23:08:14.887Z,24.41
2022-08-05T23:11:19.114Z,24.29
2022-08-05T23:14:23.035Z,24.26
2022-08-05T23:17:37.460Z,24.09
2022-08-05T23:21:01.131Z,24.03
2022-08-05T23:24:11.455Z,24.00
2022-08-05T23:27:42.453Z,23.93
2022-08-05T23:31:17.030Z,23.86
2022-08-05T23:34:56.674Z,23.86
2022-08-05T23:38:01.618Z,23.83
2022-08-05T23:41:05.005Z,23.83
2022-08-05T23:44:45.471Z,23.80
2022-08-05T23:48:17.579Z,23.78
2022-08-05T23:52:18.987Z,23.75
2022-08-05T23:55:52.240Z,23.67
2022-08-05T23:59:19.525Z,23.66
